Metar Report
Metar
METAR KN23 201256Z AUTO 20010G17KT 170V240 10SM DZ BKN030 OVC035 10/07 A2968 A02 69
METAR KN23 201156Z AUTO 25008G15KT 210V270 10SM OVC031 09/06 A2967 A02 68
METAR KN23 201056Z AUTO 25006G14KT 10SM SCT025 BKN049 OVC070 09/06 A2966 A02 67
METAR KN23 200956Z AUTO 25005KT 10SM SCT029 SCT034 OVC049 10/06 A2966 A02 66
METAR KN23 200856Z AUTO 22006KT 10SM OVC030 10/06 A2966 A02 65
METAR KN23 200756Z AUTO 24004KT 10SM OVC034 10/06 A2968 A02 64
METAR KN23 200656Z AUTO 24006KT 10SM OVC044 10/05 A2968 A02 63
METAR KN23 200556Z AUTO 22010G15KT 190V250 10SM -DZ OVC065 10/04 A2974 A02 62
METAR KN23 200456Z AUTO 22006KT 10SM BKN065 BKN075 OVC090 12/04 A2977 A02 61
METAR KN23 200356Z AUTO 22005KT 10SM SCT070 BKN090 12/03 A2978 A02 60
METAR KN23 200256Z AUTO 23007KT 10SM SCT100 10/01 A2982 A02 59
METAR KN23 200156Z AUTO 00000KT 10SM CLR 09/01 A2987 A02 58
METAR KN23 200056Z AUTO 26004KT 10SM SCT110 10/00 A2987 A02 57
METAR KN23 192356Z AUTO 00000KT 10SM CLR 09/M01 A2991 A02 56
METAR KN23 192256Z AUTO 21005KT 10SM CLR 12/01 A2993 A02 55
METAR KN23 192156Z AUTO 23007KT 10SM CLR 12/M01 A2994 A02 54
METAR KN23 192056Z AUTO 20003KT 10SM CLR 13/00 A2997 A02 53
METAR KN23 191956Z AUTO 24006KT 10SM CLR 14/01 A2999 A02 52
METAR KN23 191856Z AUTO 27006G14KT 10SM CLR 14/01 A3000 A02 51
METAR KN23 191756Z AUTO 27008G14KT 10SM CLR 14/01 A3005 A02 50
METAR KN23 191656Z AUTO 27007KT 10SM CLR 13/01 A3011 A02 49
METAR KN23 191556Z AUTO 24005KT 10SM CLR 11/02 A3015 A02 48
METAR KN23 191456Z AUTO 26006KT 10SM CLR 09/02 A3018 A02 47
METAR KN23 191356Z AUTO 27005KT 10SM CLR 05/01 A3020 A02 46
METAR KN23 191256Z AUTO 00000KT 10SM CLR 00/00 A3022 A02 45
METAR KN23 191156Z AUTO 00000KT 10SM CLR M03/M03 A3023 A02 44
METAR KN23 191056Z AUTO 00000KT 10SM CLR M03/M03 A3024 A02 43
METAR KN23 190956Z AUTO 00000KT 10SM CLR M03/M03 A3025 A02 42
METAR KN23 190856Z AUTO 23003KT 10SM CLR M03/M03 A3027 A02 41
METAR KN23 190756Z AUTO 00000KT 10SM CLR M03/M03 A3028 A02 40
METAR KN23 190656Z AUTO 00000KT 10SM CLR M03/M03 A3028 A02 39
METAR KN23 190556Z AUTO 00000KT 10SM CLR M03/M03 A3028 A02 38
METAR KN23 190456Z AUTO 00000KT 10SM CLR M03/M03 A3029 A02 37
METAR KN23 190356Z AUTO 00000KT 10SM CLR M03/M03 A3030 A02 36
METAR KN23 190256Z AUTO 00000KT 10SM CLR M03/M03 A3032 A02 35
METAR KN23 190156Z AUTO 00000KT 10SM CLR M02/M02 A3033 A02 34
METAR KN23 190056Z AUTO 00000KT 10SM CLR M02/M03 A3033 A02 33
METAR KN23 182356Z AUTO 00000KT 10SM CLR 00/M02 A3033 A02 32
METAR KN23 182256Z AUTO 00000KT 10SM CLR 02/M04 A3033 A02 31
METAR KN23 182156Z AUTO 30006KT 10SM CLR 03/M06 A3033 A02 30
METAR KN23 182056Z AUTO 32009G17KT 10SM CLR 04/M06 A3033 A02 29
METAR KN23 181956Z AUTO 31011G18KT 10SM CLR 06/M06 A3033 A02 28
METAR KN23 181856Z AUTO 29010G17KT 10SM CLR 06/M06 A3033 A02 27
METAR KN23 181756Z AUTO 32008G17KT 10SM CLR 05/M07 A3034 A02 26
METAR KN23 181656Z AUTO 29006G16KT 10SM SCT050 04/M06 A3036 A02 25
METAR KN23 181556Z AUTO 29011G16KT 10SM SCT049 04/M06 A3036 A02 24
METAR KN23 181456Z AUTO 31007G17KT 290V350 10SM CLR 03/M07 A3035 A02 23
METAR KN23 181356Z AUTO 32011G19KT 290V010 10SM CLR 02/M06 A3035 A02 22
METAR KN23 181256Z AUTO 30005KT 10SM CLR 00/M04 A3034 A02 21
METAR KN23 181156Z AUTO 00000KT 10SM CLR M01/M03 A3032 A02 20
METAR KN23 181056Z AUTO 00000KT 10SM CLR M01/M03 A3029 A02 19
METAR KN23 180956Z AUTO 25003KT 10SM CLR 00/M02 A3027 A02 18
METAR KN23 180856Z AUTO 27003KT 10SM OVC075 00/M02 A3023 A02 17
METAR KN23 180756Z AUTO 27003KT 10SM SCT034 BKN043 OVC075 00/M02 A3021 A02 16
METAR KN23 180656Z AUTO 27004KT 10SM SCT020 SCT060 OVC075 01/00 A3018 A02 15
METAR KN23 180556Z AUTO 29006G15KT 10SM -RA BKN019 OVC027 02/01 A3017 A02 P0001 14
METAR KN23 180456Z AUTO 28003KT 10SM -RA SCT016 BKN025 OVC036 02/00 A3015 A02 13
METAR KN23 180356Z AUTO 32006KT 10SM SCT012 BKN050 OVC095 02/00 A3014 A02 12
METAR KN23 180256Z AUTO 30006G15KT 10SM -RA SCT015 BKN030 OVC037 02/00 A3013 A02 11
METAR KN23 180156Z AUTO 29005G16KT 10SM SCT019 BKN031 OVC037 03/01 A3011 A02 10
METAR KN23 180056Z AUTO 29011G20KT 240V320 10SM SCT027 BKN035 BKN065 03/00 A3007 A02 9
METAR KN23 172356Z AUTO 28006KT 250V320 10SM SCT027 BKN047 OVC055 04/01 A3003 A02 8
METAR KN23 172256Z AUTO 28007KT 10SM SCT060 BKN070 04/01 A3001 A02 7
METAR KN23 172156Z AUTO 28006KT 10SM SCT080 04/02 A2997 A02 6
METAR KN23 172056Z AUTO 32005KT 10SM SCT022 SCT034 SCT044 05/03 A2994 A02 P0001 5
METAR KN23 171956Z AUTO 00000KT 10SM SCT025 SCT039 BKN080 05/03 A2991 A02 P0005 4
METAR KN23 171856Z AUTO 27007KT 230V300 10SM SCT037 SCT060 BKN070 09/04 A2988 A02 3
METAR KN23 171756Z AUTO 25005KT 10SM -DZ SCT042 SCT050 OVC070 08/05 A2987 A02 2
METAR KN23 171656Z AUTO 26008G16KT 10SM -RA BKN029 BKN041 OVC055 09/04 A2988 A02 1
METAR KN23 171556Z AUTO 26005G14KT 10SM OVC070 09/03 A2988 A02 0